Otsego, MI (49078)

4:41 AM EDT on June 30, 2015 (GMT -0400)
Browns Hay Farm | | Change Station
CLOSE
Current Station
Personal Weather Station
Location: ALLEGAN, MI
Elevation: 737 ft
Nearby Weather Stations
Active Advisory: Flood Advisory

Elev 737 ft 42.52 °N, 85.77 °W | Updated 60 seconds ago

Mostly Cloudy
Mostly Cloudy
58.0 °F
Feels Like 58.0 °F
N
0.0
Wind Variable Wind from South
Gusts 0.0 mph

Today
High -- | Low -- °F
--% Chance of Precip.
Yesterday
High -- | Low -- °F
Precip. -- in
6:08 AM 9:24 PM
Waxing Gibbous, 96% visible
Pressure 29.80 in
Visibility 10.0 miles
Clouds Mostly Cloudy 2500 ft
Dew Point 56 °F
Humidity 94%
Rainfall in
Snow Depth Not available.
UV 0 out of 12
Pollen 4.50 out of 12
Air Quality Not available.
Flu Activity Sporadic
METAR KAZO 300753Z AUTO 00000KT 10SM BKN025 16/14 A2980 RMK AO2 SLP089 T01560139

More Conditions Fewer Conditions

Pressure 29.80 in
Visibility 10.0 miles
Clouds Mostly Cloudy 2500 ft
Dew Point 56 °F
Humidity 94%
Rainfall in
Snow Depth Not available.
UV 0 out of 12
Pollen 4.50 out of 12
Air Quality Not available.
Flu Activity Sporadic
METAR KAZO 300753Z AUTO 00000KT 10SM BKN025 16/14 A2980 RMK AO2 SLP089 T01560139

More Conditions Fewer Conditions

10-Day Weather Forecast

×

Almanac

Astronomy

Jun. 30, 2015 Rise Set
Actual Time
Civil Twilight
Nautical Twilight
Astronomical Twilight
Moon
Length of Visible Light
Length of Day
Tomorrow will be .
, % of the Moon is Illuminated

Today's Extremes

State Highs State Lows

Community

WunderPhotos

Upload Photos

1,833,976 photos uploaded!

WunderBlogs® & News

Nearby

Air Quality

  Air Quality AQ Index Pollutant
Not available.

Snow Depth

Station Depth Elevation

Earthquake Activity

City Distance Mag. Time & Date
Minimum magnitude displayed is 2.5.

Coastal Water Temperatures

Place Temperature

Stations

Nearby Weather Stations

Station Location Temp. Windchill Dew Point Humidity Wind Precip. Elev Updated Type
                   
Flood Advisory
Statement as of 10:08 PM EDT on June 29, 2015

The Flood Advisory continues for
the Kalamazoo river near New Richmond
* until late Wednesday night.
* At 09 PM Monday the stage was 15.0 feet.
* Bankfull stage is 15.0 feet.
* Flood stage is 17.0 feet.
* Forecast, the river will rise to near 15.2 feet by tomorrow
morning.
* Impact, at 15.0 feet... river is bankfull and begins to spill over
into large swampy areas along the river.


Lat... Lon 4261 8617 4260 8608 4256 8602 4256 8589
      4266 8599 4268 8616